YPT weather

Pender Harbour Seaplane Base
British Columbia, Canada

Public forecast

Using degrees Celsius for public forecast. Weather courtesy of forecast.io.

METAR (pilot weather report)

Closest report is Powell River Airport, 22.4 nm (41.4 km) NW. Retrieved 2019/07/17 17:42 UTC (0 seconds ago):

CYPW 171742Z 12015G25KT 070V170 20SM SCT009 BKN034 OVC050 17/15 A2974 RMK SF3SC3SC2 SLP073 DENSITY ALT 1000FT

TAF (pilot weather forecast)

Closest forecast is Comox Airport, 33.9 nm (62.8 km) W. Retrieved 2019/07/17 12:42 UTC (5 hours ago):

TAF CYQQ 171139Z 1712/1812 15012G22KT P6SM -RA FEW015 SCT040 BKN090 TEMPO 1712/1718 6SM -SHRA BR FEW007 SCT015 OVC040 FM171800 14010KT P6SM FEW015 BKN050 TEMPO 1718/1810 P6SM -SHRA BECMG 1720/1722 35008KT FM181000 34006KT P6SM FEW015 RMK NXT FCST BY 171800Z